Time;durP1;ratioP1;P1;durP2;ratioP2;P2;SDS_P1;SDS_P2;PMS_P1;PMS_P2;Temp;Humidity;BMP_temperature;BMP_pressure;BME280_temperature;BME280_humidity;BME280_pressure;Samples;Min_cycle;Max_cycle;Signal;HPM_P1;HPM_P2
2022/12/01 00:01:44;;;;;;;6.90;2.65;;;6.50;92.30;;;;;;5095009;28;20043;-76
2022/12/01 00:04:10;;;;;;;5.13;2.40;;;6.40;92.30;;;;;;5077745;28;20040;-76
2022/12/01 00:06:36;;;;;;;6.43;2.78;;;6.40;92.30;;;;;;5093871;28;20089;-76
2022/12/01 00:11:37;;;;;;;4.70;2.20;;;6.40;92.30;;;;;;5112909;28;20043;-76
2022/12/01 00:14:04;;;;;;;4.95;2.25;;;6.40;92.30;;;;;;5112747;28;20122;-76
2022/12/01 00:16:30;;;;;;;4.80;2.15;;;6.50;92.40;;;;;;5094470;28;20047;-76
2022/12/01 00:18:57;;;;;;;5.75;2.42;;;6.30;92.30;;;;;;5094601;28;20047;-76
2022/12/01 00:21:24;;;;;;;5.57;2.30;;;6.40;92.30;;;;;;5113112;28;20484;-76
2022/12/01 00:23:52;;;;;;;4.70;2.08;;;6.40;92.30;;;;;;5112560;28;20051;-76
2022/12/01 00:26:20;;;;;;;4.63;2.33;;;6.40;92.40;;;;;;5112630;28;20405;-76
2022/12/01 00:28:51;;;;;;;6.68;2.38;;;6.50;92.40;;;;;;5112780;28;20097;-76
2022/12/01 00:31:17;;;;;;;4.35;2.08;;;6.50;92.40;;;;;;5112700;28;20046;-77
2022/12/01 00:33:43;;;;;;;4.50;1.95;;;6.50;92.40;;;;;;5112631;28;20035;-76
2022/12/01 00:36:09;;;;;;;6.00;2.30;;;6.40;92.30;;;;;;5113113;28;20046;-76
2022/12/01 00:38:34;;;;;;;5.43;2.40;;;6.50;92.40;;;;;;5095120;28;20070;-76
2022/12/01 00:41:00;;;;;;;4.88;2.33;;;6.50;92.40;;;;;;5113087;28;20094;-76
2022/12/01 00:43:26;;;;;;;7.03;2.42;;;6.50;92.40;;;;;;5112443;28;20036;-76
2022/12/01 00:45:52;;;;;;;5.57;2.50;;;6.50;92.40;;;;;;5094839;28;20526;-76
2022/12/01 00:48:17;;;;;;;6.35;2.33;;;6.50;92.40;;;;;;5094562;28;20036;-76
2022/12/01 00:50:43;;;;;;;6.47;2.40;;;6.50;92.40;;;;;;5112499;28;20459;-76
2022/12/01 00:53:09;;;;;;;5.65;2.47;;;6.40;92.30;;;;;;5094167;28;20043;-76
2022/12/01 00:55:35;;;;;;;5.65;2.67;;;6.40;92.30;;;;;;5094253;28;20092;-76
2022/12/01 00:58:00;;;;;;;7.20;3.10;;;6.40;92.30;;;;;;5112213;28;20070;-76
2022/12/01 01:00:26;;;;;;;6.25;2.63;;;6.40;92.30;;;;;;5112139;28;20046;-76
2022/12/01 01:02:52;;;;;;;6.93;2.78;;;6.40;92.30;;;;;;5093846;28;20379;-76
2022/12/01 01:05:17;;;;;;;6.13;2.72;;;6.40;92.30;;;;;;5112334;28;20077;-76
2022/12/01 01:07:43;;;;;;;6.80;2.47;;;6.40;92.30;;;;;;5093914;28;20166;-76
2022/12/01 01:10:09;;;;;;;7.18;3.15;;;6.40;92.40;;;;;;5094227;28;20047;-76
2022/12/01 01:12:35;;;;;;;7.13;3.03;;;6.30;92.30;;;;;;5093977;28;20046;-76
2022/12/01 01:15:01;;;;;;;5.88;2.70;;;6.30;92.30;;;;;;5077110;28;20036;-76
2022/12/01 01:17:26;;;;;;;7.93;3.15;;;6.40;92.30;;;;;;5079059;28;20070;-76
2022/12/01 01:19:52;;;;;;;6.97;2.70;;;6.30;92.30;;;;;;5097413;28;20044;-76
2022/12/01 01:22:18;;;;;;;7.05;3.10;;;6.40;92.30;;;;;;5097414;28;20046;-76
2022/12/01 01:24:44;;;;;;;6.10;2.80;;;6.30;92.30;;;;;;5115508;28;20481;-76
2022/12/01 01:27:09;;;;;;;6.43;2.38;;;6.40;92.30;;;;;;5115752;28;20427;-76
2022/12/01 01:29:35;;;;;;;7.45;2.85;;;6.40;92.30;;;;;;5115955;28;20031;-76
2022/12/01 01:32:01;;;;;;;6.00;2.95;;;6.40;92.30;;;;;;5097536;28;20058;-76
2022/12/01 01:34:26;;;;;;;5.43;2.53;;;6.40;92.30;;;;;;5115673;28;20130;-76
2022/12/01 01:36:52;;;;;;;7.07;3.10;;;6.40;92.30;;;;;;5115371;28;20051;-76
2022/12/01 01:39:18;;;;;;;6.28;2.72;;;6.40;92.30;;;;;;5115350;28;20059;-76
2022/12/01 01:41:43;;;;;;;6.93;3.17;;;6.30;92.30;;;;;;5115621;28;20047;-75
2022/12/01 01:44:40;;;;;;;7.68;3.35;;;6.40;92.30;;;;;;5115680;28;20043;-76
2022/12/01 01:47:06;;;;;;;4.68;2.25;;;6.40;92.30;;;;;;5096698;28;20397;-76
2022/12/01 01:49:31;;;;;;;5.95;2.58;;;6.30;92.30;;;;;;5115063;28;20049;-76
2022/12/01 01:51:57;;;;;;;5.70;2.95;;;6.40;92.30;;;;;;5096685;28;20047;-76
2022/12/01 01:54:28;;;;;;;6.28;2.63;;;6.40;92.30;;;;;;5080015;28;20138;-76
2022/12/01 01:56:56;;;;;;;5.22;2.25;;;6.40;92.30;;;;;;5097289;28;20052;-76
2022/12/01 01:59:27;;;;;;;7.10;2.90;;;6.40;92.30;;;;;;5115171;28;20382;-76
2022/12/01 02:02:01;;;;;;;6.17;2.50;;;6.40;92.30;;;;;;5115263;28;20114;-76
2022/12/01 02:04:28;;;;;;;4.57;2.25;;;6.40;92.30;;;;;;5115053;28;20047;-76
2022/12/01 02:06:54;;;;;;;5.07;2.45;;;6.50;92.30;;;;;;5096942;28;20156;-76
2022/12/01 02:09:19;;;;;;;6.38;2.83;;;6.40;92.30;;;;;;5115442;28;20067;-76
2022/12/01 02:12:10;;;;;;;6.32;2.70;;;6.40;92.30;;;;;;5115031;28;20500;-76
2022/12/01 02:15:04;;;;;;;5.93;2.50;;;6.40;92.30;;;;;;5081451;28;20564;-76
2022/12/01 02:17:44;;;;;;;5.13;2.28;;;6.40;92.30;;;;;;5083552;28;20475;-76
2022/12/01 02:20:38;;;;;;;4.88;2.17;;;6.40;92.30;;;;;;5114894;28;20047;-76
2022/12/01 02:23:34;;;;;;;4.78;2.33;;;6.40;92.30;;;;;;5082063;28;20092;-76
2022/12/01 02:26:34;;;;;;;4.30;2.13;;;6.40;92.30;;;;;;5114811;28;20043;-76
2022/12/01 02:29:31;;;;;;;5.25;2.65;;;6.40;92.30;;;;;;5113850;28;20139;-76
2022/12/01 02:32:15;;;;;;;5.43;2.45;;;6.40;92.30;;;;;;5114755;28;20482;-76
2022/12/01 02:34:50;;;;;;;6.00;2.38;;;6.30;92.30;;;;;;5095940;28;20048;-76
2022/12/01 02:37:29;;;;;;;5.60;2.63;;;6.30;92.30;;;;;;5095997;28;20050;-76
2022/12/01 02:40:19;;;;;;;5.78;2.70;;;6.40;92.30;;;;;;5114553;28;20119;-76
2022/12/01 02:43:02;;;;;;;6.18;2.50;;;6.30;92.30;;;;;;5114340;28;20413;-76
2022/12/01 02:45:40;;;;;;;6.30;2.53;;;6.40;92.30;;;;;;5114273;28;20078;-76
2022/12/01 02:48:13;;;;;;;5.75;2.40;;;6.40;92.60;;;;;;5114191;28;20042;-76
2022/12/01 02:50:40;;;;;;;6.57;2.50;;;6.40;92.30;;;;;;5114772;28;20089;-76
2022/12/01 02:53:09;;;;;;;6.18;2.70;;;6.30;92.30;;;;;;5114667;28;20058;-76
2022/12/01 02:55:35;;;;;;;7.32;3.00;;;6.30;92.30;;;;;;5096392;28;20036;-76
2022/12/01 02:58:00;;;;;;;5.95;2.58;;;6.40;92.30;;;;;;5114155;28;20036;-76
2022/12/01 03:00:29;;;;;;;5.18;2.20;;;6.40;92.30;;;;;;5114029;28;20033;-76
2022/12/01 03:03:18;;;;;;;5.80;2.78;;;6.40;92.30;;;;;;5079132;28;20072;-76
2022/12/01 03:05:53;;;;;;;5.80;2.60;;;6.40;92.30;;;;;;5081804;28;20135;-76
2022/12/01 03:08:44;;;;;;;4.45;2.22;;;6.40;92.30;;;;;;5113599;28;20047;-76
2022/12/01 03:11:25;;;;;;;4.05;2.10;;;6.40;92.30;;;;;;5113674;28;20525;-76
2022/12/01 03:14:08;;;;;;;5.80;2.10;;;6.40;92.30;;;;;;5097595;28;20172;-76
2022/12/01 03:16:48;;;;;;;7.85;2.58;;;6.30;92.30;;;;;;5095285;28;20413;-76
2022/12/01 03:19:38;;;;;;;7.47;2.90;;;6.40;92.30;;;;;;5096542;28;20039;-76
2022/12/01 03:22:09;;;;;;;4.40;2.00;;;6.40;92.30;;;;;;5098445;28;20481;-76
2022/12/01 03:24:37;;;;;;;5.25;2.42;;;6.40;92.40;;;;;;5095298;28;20048;-76
2022/12/01 03:27:05;;;;;;;7.20;2.58;;;6.30;92.30;;;;;;5061864;28;20039;-76
2022/12/01 03:29:37;;;;;;;5.53;2.58;;;6.40;92.40;;;;;;5113917;28;20504;-76
2022/12/01 03:32:08;;;;;;;6.50;2.47;;;6.40;92.40;;;;;;5113819;28;20039;-76
2022/12/01 03:34:37;;;;;;;;;;;6.40;92.40;;;;;;5079363;28;20070;-76
2022/12/01 03:37:11;;;;;;;7.25;2.60;;;6.40;92.30;;;;;;5113420;28;20002;-76
2022/12/01 03:39:38;;;;;;;5.30;2.53;;;6.30;92.30;;;;;;5113189;28;20047;-76
2022/12/01 03:42:19;;;;;;;5.05;2.30;;;6.40;92.30;;;;;;5112788;28;20044;-76
2022/12/01 03:44:51;;;;;;;4.53;2.10;;;6.40;92.40;;;;;;5113312;28;20056;-76
2022/12/01 03:47:21;;;;;;;5.95;2.40;;;6.30;92.30;;;;;;5113625;28;20038;-76
2022/12/01 03:49:50;;;;;;;6.00;2.78;;;6.40;92.30;;;;;;5113415;28;20118;-76
2022/12/01 03:52:41;;;;;;;5.53;2.22;;;6.40;92.40;;;;;;5113715;28;20043;-76
2022/12/01 03:55:24;;;;;;;6.20;2.80;;;6.40;92.30;;;;;;5094923;28;20101;-76
2022/12/01 03:57:58;;;;;;;5.53;2.42;;;6.40;92.30;;;;;;5094876;28;20050;-76
2022/12/01 04:00:25;;;;;;;5.22;2.63;;;6.30;92.30;;;;;;5113082;28;20095;-76
2022/12/01 04:02:56;;;;;;;6.35;2.60;;;6.40;92.30;;;;;;5113394;28;20047;-76
2022/12/01 04:05:21;;;;;;;6.83;3.07;;;6.40;92.40;;;;;;5113663;28;20082;-76
2022/12/01 04:07:47;;;;;;;6.72;3.08;;;6.40;92.30;;;;;;5094831;28;20067;-76
2022/12/01 04:10:12;;;;;;;7.03;3.28;;;6.40;92.30;;;;;;5094511;28;20124;-76
2022/12/01 04:12:38;;;;;;;6.80;2.60;;;6.40;92.30;;;;;;5113405;28;20042;-76
2022/12/01 04:15:07;;;;;;;5.78;2.40;;;6.40;92.30;;;;;;5078234;28;20108;-76
2022/12/01 04:17:33;;;;;;;7.47;2.63;;;6.40;92.30;;;;;;5094394;28;20062;-76
2022/12/01 04:19:59;;;;;;;6.57;2.83;;;6.40;92.30;;;;;;5094449;28;20036;-76
2022/12/01 04:22:25;;;;;;;5.78;2.70;;;6.40;92.30;;;;;;5112641;28;20039;-76
2022/12/01 04:24:52;;;;;;;5.82;2.72;;;6.50;92.30;;;;;;5112832;28;20040;-76
2022/12/01 04:27:17;;;;;;;5.18;2.40;;;6.40;92.30;;;;;;5094624;28;20036;-76
2022/12/01 04:29:43;;;;;;;4.90;2.47;;;6.40;92.30;;;;;;5112655;28;20392;-76
2022/12/01 04:32:09;;;;;;;4.25;2.05;;;6.30;92.30;;;;;;5112571;28;20398;-76
2022/12/01 04:34:34;;;;;;;5.40;2.50;;;6.40;92.30;;;;;;5094387;28;20082;-76
2022/12/01 04:37:02;;;;;;;5.85;2.75;;;6.40;92.30;;;;;;5094306;28;20052;-76
2022/12/01 04:39:28;;;;;;;4.22;2.08;;;6.40;92.30;;;;;;5112823;28;20081;-76
2022/12/01 04:41:54;;;;;;;6.15;2.50;;;6.40;92.30;;;;;;5112809;28;20040;-76
2022/12/01 04:44:19;;;;;;;7.50;2.70;;;6.40;92.30;;;;;;5112767;28;20055;-76
2022/12/01 04:46:45;;;;;;;7.03;2.90;;;6.40;92.30;;;;;;5113028;28;20034;-76
2022/12/01 04:49:10;;;;;;;6.05;2.72;;;6.40;92.30;;;;;;5094355;28;20040;-76
2022/12/01 04:51:36;;;;;;;4.78;2.15;;;6.40;92.40;;;;;;5113712;28;20039;-76
2022/12/01 04:54:02;;;;;;;4.90;2.13;;;6.40;92.30;;;;;;5115849;28;20035;-76
2022/12/01 04:56:28;;;;;;;5.68;2.35;;;6.40;92.30;;;;;;5098422;28;20388;-76
2022/12/01 04:58:53;;;;;;;6.22;2.50;;;6.30;92.30;;;;;;5080988;28;20051;-76
2022/12/01 05:01:19;;;;;;;5.63;2.78;;;6.30;92.30;;;;;;5116683;28;20032;-76
2022/12/01 05:03:49;;;;;;;5.25;2.17;;;6.30;92.40;;;;;;5098041;28;20035;-76
2022/12/01 05:06:19;;;;;;;6.40;2.55;;;6.30;92.40;;;;;;5116760;28;20036;-76
2022/12/01 05:08:44;;;;;;;6.57;2.83;;;6.30;92.40;;;;;;5117148;28;20089;-76
2022/12/01 05:11:11;;;;;;;5.55;2.50;;;6.30;92.40;;;;;;5116962;28;20035;-76
2022/12/01 05:13:39;;;;;;;3.95;2.05;;;6.20;92.30;;;;;;5097989;28;20485;-76
2022/12/01 05:16:10;;;;;;;5.28;2.35;;;6.30;92.40;;;;;;5116545;28;20062;-76
2022/12/01 05:18:36;;;;;;;4.57;2.38;;;6.20;92.40;;;;;;5116611;28;20102;-76
2022/12/01 05:21:04;;;;;;;4.28;2.10;;;6.30;92.40;;;;;;5116529;28;20040;-76
2022/12/01 05:23:32;;;;;;;4.13;1.90;;;6.30;92.40;;;;;;5115949;28;20043;-76
2022/12/01 05:25:59;;;;;;;4.50;2.15;;;6.20;92.30;;;;;;5116631;28;20118;-76
2022/12/01 05:28:25;;;;;;;4.63;2.47;;;6.30;92.40;;;;;;5116481;28;20137;-76
2022/12/01 05:30:53;;;;;;;7.28;2.90;;;6.20;92.30;;;;;;5116133;28;20036;-76
2022/12/01 05:33:19;;;;;;;5.97;2.15;;;6.20;92.30;;;;;;5115976;28;20044;-76
2022/12/01 05:35:46;;;;;;;5.15;2.10;;;6.20;92.40;;;;;;5115887;28;20047;-76
2022/12/01 05:38:11;;;;;;;5.65;2.42;;;6.20;92.40;;;;;;5115698;28;20035;-76
2022/12/01 05:40:37;;;;;;;5.45;2.67;;;6.20;92.30;;;;;;5115760;28;20144;-76
2022/12/01 05:43:03;;;;;;;5.32;2.30;;;6.20;92.30;;;;;;5115820;28;20122;-76
2022/12/01 05:45:29;;;;;;;5.20;2.42;;;6.20;92.40;;;;;;5097378;28;20036;-77
2022/12/01 05:47:56;;;;;;;5.43;2.40;;;6.30;92.40;;;;;;5097146;28;20443;-76
2022/12/01 05:50:22;;;;;;;4.68;2.33;;;6.20;92.30;;;;;;5115785;28;20040;-76
2022/12/01 05:52:48;;;;;;;4.32;2.20;;;6.20;92.30;;;;;;5115389;28;20122;-76
2022/12/01 05:55:14;;;;;;;4.68;2.17;;;6.20;92.30;;;;;;5080064;28;20123;-76
2022/12/01 05:57:39;;;;;;;5.80;2.40;;;6.20;92.30;;;;;;5096934;28;20055;-76
2022/12/01 06:00:06;;;;;;;6.25;2.63;;;6.20;92.60;;;;;;5097243;28;20044;-76
2022/12/01 06:02:32;;;;;;;4.43;2.40;;;6.20;92.30;;;;;;5096897;28;20040;-76
2022/12/01 06:04:57;;;;;;;6.15;2.80;;;6.20;92.30;;;;;;5079691;28;20043;-77
2022/12/01 06:07:24;;;;;;;4.80;2.45;;;6.30;92.30;;;;;;5097150;28;20035;-76
2022/12/01 06:09:50;;;;;;;4.60;2.28;;;6.10;92.30;;;;;;5116082;28;20044;-76
2022/12/01 06:12:16;;;;;;;6.43;2.95;;;6.20;92.30;;;;;;5115391;28;20039;-76
2022/12/01 06:14:42;;;;;;;5.85;2.53;;;6.10;92.30;;;;;;5116423;28;20045;-76
2022/12/01 06:17:07;;;;;;;4.60;2.20;;;6.20;92.30;;;;;;5116148;28;20130;-76
2022/12/01 06:19:33;;;;;;;6.75;2.97;;;6.20;92.30;;;;;;5082355;28;20061;-76
2022/12/01 06:21:59;;;;;;;6.45;2.53;;;6.20;92.30;;;;;;5085431;28;20041;-76
2022/12/01 06:24:24;;;;;;;4.57;2.20;;;6.20;92.60;;;;;;5115412;28;20043;-76
2022/12/01 06:26:50;;;;;;;6.30;2.75;;;6.20;92.30;;;;;;5097531;28;20496;-76
2022/12/01 06:29:15;;;;;;;5.10;2.50;;;6.10;92.30;;;;;;5114818;28;20046;-76
2022/12/01 06:31:41;;;;;;;6.80;2.72;;;6.10;92.30;;;;;;5115149;28;20106;-76
2022/12/01 06:34:07;;;;;;;5.18;2.58;;;6.10;92.30;;;;;;5115923;28;20051;-76
2022/12/01 06:36:32;;;;;;;5.82;2.50;;;6.10;92.30;;;;;;5115128;28;20051;-76
2022/12/01 06:38:58;;;;;;;8.20;2.88;;;6.10;92.30;;;;;;5080306;28;20050;-76
2022/12/01 06:41:23;;;;;;;8.20;3.28;;;6.10;92.30;;;;;;5096634;28;20134;-76
2022/12/01 06:43:49;;;;;;;5.93;2.60;;;6.10;92.30;;;;;;5080144;28;20055;-76
2022/12/01 06:46:15;;;;;;;6.75;3.17;;;6.00;92.30;;;;;;5096529;28;20043;-77
2022/12/01 06:48:40;;;;;;;5.70;2.92;;;6.00;92.30;;;;;;5096404;28;20124;-76
2022/12/01 06:51:06;;;;;;;7.53;3.00;;;6.00;92.30;;;;;;5097742;28;20126;-76
2022/12/01 06:53:31;;;;;;;6.90;3.45;;;6.00;92.30;;;;;;5097052;28;20040;-75
2022/12/01 06:56:00;;;;;;;6.35;2.90;;;6.00;92.30;;;;;;5114565;28;20098;-75
2022/12/01 06:58:26;;;;;;;8.88;3.30;;;6.00;92.30;;;;;;5114954;28;20040;-75
2022/12/01 07:00:52;;;;;;;9.07;3.13;;;6.00;92.30;;;;;;5096571;28;20031;-75
2022/12/01 07:03:17;;;;;;;5.85;2.45;;;6.00;92.30;;;;;;5096048;28;20035;-75
2022/12/01 07:05:43;;;;;;;6.78;2.92;;;6.00;92.30;;;;;;5096065;28;20594;-75
2022/12/01 07:08:09;;;;;;;7.40;2.80;;;6.00;92.30;;;;;;5096008;28;20039;-75
2022/12/01 07:10:34;;;;;;;8.35;3.00;;;6.00;92.30;;;;;;5095848;28;20036;-75
2022/12/01 07:13:00;;;;;;;5.47;2.65;;;5.90;92.30;;;;;;5114090;28;20063;-75
2022/12/01 07:15:27;;;;;;;6.03;2.65;;;5.90;92.30;;;;;;5114783;28;20481;-75
2022/12/01 07:17:53;;;;;;;6.25;2.65;;;5.90;92.30;;;;;;5114373;28;20040;-75
2022/12/01 07:20:18;;;;;;;5.70;2.30;;;5.90;92.60;;;;;;5078744;28;20377;-75
2022/12/01 07:22:44;;;;;;;5.97;2.58;;;5.90;92.30;;;;;;5096208;28;20042;-75
2022/12/01 07:25:10;;;;;;;5.07;2.40;;;5.90;92.30;;;;;;5113636;28;20508;-75
2022/12/01 07:27:35;;;;;;;6.25;2.60;;;5.90;92.30;;;;;;5113773;28;20035;-75
2022/12/01 07:30:01;;;;;;;4.50;2.22;;;5.90;92.40;;;;;;5095419;28;20374;-75
2022/12/01 07:32:27;;;;;;;4.95;2.65;;;5.80;92.40;;;;;;5095927;28;20050;-75
2022/12/01 07:34:53;;;;;;;6.38;2.60;;;5.80;92.40;;;;;;5114078;28;20040;-75
2022/12/01 07:37:21;;;;;;;5.75;2.60;;;5.80;92.50;;;;;;5115570;28;20047;-75
2022/12/01 07:39:49;;;;;;;5.97;2.50;;;5.80;92.40;;;;;;5080284;28;20044;-74
2022/12/01 07:42:41;;;;;;;5.38;2.22;;;5.80;92.50;;;;;;5061739;28;20040;-77
2022/12/01 07:45:09;;;;;;;5.80;2.20;;;5.80;92.50;;;;;;5094678;28;20517;-74
2022/12/01 07:47:35;;;;;;;5.22;2.47;;;5.80;92.40;;;;;;5062738;28;20059;-73
2022/12/01 07:50:03;;;;;;;6.82;2.45;;;5.90;92.40;;;;;;5113447;28;20093;-75
2022/12/01 07:52:33;;;;;;;7.15;2.95;;;5.80;92.40;;;;;;5095824;28;20058;-76
2022/12/01 07:54:59;;;;;;;6.15;2.50;;;5.90;92.40;;;;;;5034600;28;20439;-77
2022/12/01 07:57:27;;;;;;;5.22;2.35;;;5.80;92.30;;;;;;5035727;28;20080;-77
2022/12/01 08:00:00;;;;;;;6.35;2.67;;;5.90;92.30;;;;;;5019386;28;20044;-76
2022/12/01 08:02:32;;;;;;;5.18;2.60;;;6.10;92.40;;;;;;4991194;28;20504;-74
2022/12/01 08:06:10;;;;;;;4.53;2.20;;;6.00;92.30;;;;;;4974682;28;20425;-75
2022/12/01 08:09:22;;;;;;;6.60;2.47;;;5.90;92.20;;;;;;4937698;29;20397;-75
2022/12/01 08:11:51;;;;;;;6.22;2.63;;;6.00;92.20;;;;;;4943951;28;20122;-75
2022/12/01 08:14:19;;;;;;;5.75;2.45;;;6.10;92.20;;;;;;4937931;29;20058;-75
2022/12/01 08:17:11;;;;;;;5.45;2.50;;;6.10;92.20;;;;;;4937599;29;20048;-76
2022/12/01 08:19:42;;;;;;;5.45;2.53;;;6.10;92.20;;;;;;4948327;28;20125;-75
2022/12/01 08:22:17;;;;;;;5.85;2.30;;;6.20;92.20;;;;;;4982442;28;20034;-75
2022/12/01 08:24:55;;;;;;;7.20;2.80;;;6.20;92.20;;;;;;4993072;28;20050;-76
2022/12/01 08:27:21;;;;;;;5.95;3.10;;;6.20;92.10;;;;;;4977218;28;20046;-75
2022/12/01 08:29:53;;;;;;;6.88;2.80;;;6.20;92.10;;;;;;4976991;28;20034;-74
2022/12/01 08:32:24;;;;;;;5.75;2.45;;;6.30;92.10;;;;;;4962376;28;20050;-74
2022/12/01 08:34:55;;;;;;;6.43;2.28;;;6.20;92.10;;;;;;4990370;28;20054;-74
2022/12/01 08:40:41;;;;;;;6.40;2.50;;;6.40;92.10;;;;;;4823179;29;20072;-74
2022/12/01 08:43:30;;;;;;;5.32;2.35;;;6.30;92.00;;;;;;4822675;29;20530;-74
2022/12/01 08:46:05;;;;;;;5.93;2.25;;;6.40;92.00;;;;;;4854982;29;20050;-75
2022/12/01 08:48:30;;;;;;;6.10;2.20;;;6.40;92.00;;;;;;4789710;29;20035;-75
2022/12/01 08:51:07;;;;;;;5.60;2.10;;;6.50;92.00;;;;;;4806334;29;20516;-74
2022/12/01 08:53:34;;;;;;;5.28;2.20;;;6.40;92.00;;;;;;4822475;29;20034;-75
2022/12/01 08:56:11;;;;;;;5.03;2.55;;;6.40;92.00;;;;;;4825272;29;20524;-75
2022/12/01 08:58:37;;;;;;;6.80;2.47;;;6.40;92.00;;;;;;4822384;29;20129;-75
2022/12/01 09:01:10;;;;;;;7.63;3.00;;;6.50;91.90;;;;;;4822733;29;20143;-76
2022/12/01 09:03:37;;;;;;;5.85;2.58;;;6.50;91.90;;;;;;4801538;29;20043;-74
2022/12/01 09:06:06;;;;;;;7.68;2.90;;;6.50;91.90;;;;;;4803877;29;20051;-75
2022/12/01 09:08:33;;;;;;;7.80;3.60;;;6.60;91.90;;;;;;4813976;29;20046;-75
2022/12/01 09:11:00;;;;;;;5.57;2.83;;;6.50;91.90;;;;;;4851962;29;20498;-74
2022/12/01 09:13:27;;;;;;;6.55;3.10;;;6.60;91.90;;;;;;4938608;29;20091;-75
2022/12/01 09:15:57;;;;;;;7.10;2.63;;;6.60;91.90;;;;;;4937309;28;20069;-74
2022/12/01 09:18:23;;;;;;;5.63;2.45;;;6.60;91.90;;;;;;4979690;28;20045;-77
2022/12/01 09:20:49;;;;;;;7.25;2.80;;;6.60;91.90;;;;;;5023793;28;20438;-76
2022/12/01 09:23:14;;;;;;;6.15;2.33;;;6.60;91.90;;;;;;5029802;28;20088;-73
2022/12/01 09:26:03;;;;;;;6.03;2.55;;;6.70;91.90;;;;;;5029528;28;20298;-75
2022/12/01 09:28:39;;;;;;;4.90;2.30;;;6.80;91.90;;;;;;5015035;28;20046;-75
2022/12/01 09:31:07;;;;;;;6.32;2.47;;;6.80;91.90;;;;;;4997816;28;20041;-75
2022/12/01 09:33:33;;;;;;;6.80;2.70;;;6.80;91.80;;;;;;5032581;28;20228;-76
2022/12/01 09:36:02;;;;;;;5.78;2.30;;;6.90;91.80;;;;;;5049508;28;20065;-77
2022/12/01 09:38:31;;;;;;;5.72;2.75;;;6.80;91.80;;;;;;5051635;28;20052;-77
2022/12/01 09:41:01;;;;;;;7.78;3.03;;;6.80;91.80;;;;;;5000221;28;20040;-76
2022/12/01 09:43:35;;;;;;;7.90;2.90;;;6.80;91.80;;;;;;5053668;28;20044;-78
2022/12/01 09:46:06;;;;;;;7.28;3.30;;;6.90;91.80;;;;;;5020856;28;20065;-76
2022/12/01 09:48:46;;;;;;;9.85;3.45;;;6.90;91.80;;;;;;5021966;28;20044;-77
2022/12/01 09:51:18;;;;;;;6.85;2.70;;;6.90;91.80;;;;;;5049813;28;20032;-78
2022/12/01 09:53:49;;;;;;;6.40;2.97;;;7.00;91.80;;;;;;5064575;28;20055;-75
2022/12/01 09:56:30;;;;;;;6.35;2.78;;;7.00;91.80;;;;;;5113321;28;20465;-78
2022/12/01 09:59:51;;;;;;;7.40;2.97;;;7.00;91.70;;;;;;5081218;28;20104;-79
2022/12/01 10:02:30;;;;;;;5.22;2.35;;;7.00;91.70;;;;;;5071661;28;20039;-75
2022/12/01 10:05:03;;;;;;;5.05;2.63;;;7.10;91.70;;;;;;5115230;28;20052;-77
2022/12/01 10:07:38;;;;;;;7.15;3.00;;;7.20;91.70;;;;;;5114729;28;20054;-77
2022/12/01 10:10:19;;;;;;;4.90;2.30;;;7.20;91.70;;;;;;5035412;28;20527;-77
2022/12/01 10:12:46;;;;;;;6.70;3.03;;;7.20;91.70;;;;;;5035594;28;20510;-77
2022/12/01 10:15:21;;;;;;;4.95;2.45;;;7.20;91.70;;;;;;5018934;28;20040;-77
2022/12/01 10:18:12;;;;;;;5.82;2.80;;;7.40;91.70;;;;;;5036948;28;20190;-76
2022/12/01 10:20:45;;;;;;;;;;;7.20;91.60;;;;;;5040627;28;20040;-75
2022/12/01 10:23:37;;;;;;;6.72;2.60;;;7.30;91.60;;;;;;5072720;28;19920;-75
2022/12/01 10:26:15;;;;;;;5.78;2.28;;;7.30;91.60;;;;;;5055966;28;20053;-76
2022/12/01 10:29:07;;;;;;;5.35;2.20;;;7.30;91.60;;;;;;5055261;28;20131;-76
2022/12/01 10:31:52;;;;;;;6.38;2.58;;;7.20;91.50;;;;;;5072201;28;20068;-75
2022/12/01 10:34:22;;;;;;;5.00;2.30;;;7.40;91.60;;;;;;5039743;28;20055;-75
2022/12/01 10:36:51;;;;;;;5.93;2.45;;;7.50;91.60;;;;;;5072307;28;20068;-77
2022/12/01 10:39:24;;;;;;;6.18;2.72;;;7.50;91.50;;;;;;5035836;28;20049;-76
2022/12/01 10:42:06;;;;;;;6.18;2.67;;;7.50;91.50;;;;;;5009378;28;20057;-78
2022/12/01 10:44:46;;;;;;;5.90;2.58;;;7.40;91.20;;;;;;4934903;29;20058;-78
2022/12/01 10:48:08;;;;;;;5.43;2.42;;;7.50;91.50;;;;;;4915625;29;20446;-79
2022/12/01 10:50:35;;;;;;;5.63;2.50;;;7.50;91.50;;;;;;4901641;29;20040;-77
2022/12/01 10:53:29;;;;;;;5.35;2.60;;;7.50;91.40;;;;;;4915678;29;20071;-76
2022/12/01 10:56:04;;;;;;;7.05;2.65;;;7.50;91.40;;;;;;4899800;29;20422;-75
2022/12/01 10:58:43;;;;;;;8.60;3.05;;;7.60;91.40;;;;;;4915808;29;20138;-75
2022/12/01 11:01:34;;;;;;;6.20;2.53;;;7.60;91.40;;;;;;4915305;29;20068;-75
2022/12/01 11:04:28;;;;;;;7.85;3.03;;;7.70;91.40;;;;;;4914915;29;20051;-75
2022/12/01 11:06:54;;;;;;;6.22;3.00;;;7.70;91.40;;;;;;4915863;29;20066;-77
2022/12/01 11:09:28;;;;;;;7.30;3.20;;;7.70;91.30;;;;;;4946570;28;20478;-76
2022/12/01 11:12:01;;;;;;;7.13;3.05;;;7.60;91.20;;;;;;4979696;28;20048;-74
2022/12/01 11:14:40;;;;;;;7.72;3.22;;;7.70;91.20;;;;;;4979086;28;20131;-74
2022/12/01 11:17:28;;;;;;;5.88;2.70;;;7.60;91.20;;;;;;5014163;28;20046;-74
2022/12/01 11:19:53;;;;;;;7.10;3.13;;;7.60;91.30;;;;;;5051479;28;20511;-74
2022/12/01 11:22:39;;;;;;;6.07;2.78;;;7.60;91.30;;;;;;5076389;28;20046;-76
2022/12/01 11:25:21;;;;;;;5.25;2.53;;;7.60;91.40;;;;;;5104095;28;20039;-78
2022/12/01 11:28:00;;;;;;;5.97;2.75;;;7.60;91.30;;;;;;5051293;28;20056;-76
2022/12/01 11:34:01;;;;;;;4.95;2.40;;;7.70;91.30;;;;;;4957363;28;20561;-75
2022/12/01 11:36:52;;;;;;;6.38;2.85;;;7.70;91.20;;;;;;4910623;29;20048;-76
2022/12/01 11:39:31;;;;;;;4.53;2.40;;;7.70;91.20;;;;;;4878419;29;20572;-75
2022/12/01 11:42:02;;;;;;;6.50;2.58;;;7.80;91.20;;;;;;4873469;29;20052;-76
2022/12/01 11:44:54;;;;;;;5.63;2.60;;;7.70;91.20;;;;;;4840859;29;20061;-76
2022/12/01 11:47:22;;;;;;;4.35;2.22;;;7.80;91.20;;;;;;4841802;29;20046;-76
2022/12/01 11:49:55;;;;;;;5.43;2.42;;;7.80;91.20;;;;;;4841416;29;20485;-76
2022/12/01 11:52:26;;;;;;;7.00;2.53;;;7.80;91.10;;;;;;4860862;29;20045;-76
2022/12/01 11:54:54;;;;;;;;;;;7.80;91.10;;;;;;4880800;29;20053;-76
2022/12/01 11:57:20;;;;;;;5.13;2.35;;;7.80;91.10;;;;;;4880941;29;19915;-76
2022/12/01 12:04:17;;;;;;;5.10;2.65;;;7.70;91.00;;;;;;4896409;29;20040;-77
2022/12/01 12:07:35;;;;;;;4.32;2.20;;;7.70;91.00;;;;;;4873768;29;20076;-77
2022/12/01 12:10:29;;;;;;;4.95;2.33;;;7.90;91.00;;;;;;4883001;29;20122;-75
2022/12/01 12:13:14;;;;;;;5.30;2.35;;;7.80;91.00;;;;;;4891791;28;20038;-76
2022/12/01 12:16:06;;;;;;;5.38;2.08;;;7.80;90.90;;;;;;4976457;28;20038;-76
2022/12/01 12:19:13;;;;;;;4.43;2.20;;;7.80;91.00;;;;;;4946618;28;20034;-79
2022/12/01 12:22:06;;;;;;;4.00;1.95;;;7.80;90.90;;;;;;4931676;29;20039;-79
2022/12/01 12:24:58;;;;;;;4.88;2.20;;;7.80;90.90;;;;;;4932810;29;20058;-79
2022/12/01 12:27:45;;;;;;;5.30;2.40;;;7.80;90.90;;;;;;4931496;29;20044;-79
2022/12/01 12:30:29;;;;;;;5.32;2.05;;;7.80;90.90;;;;;;4901830;29;20043;-79
2022/12/01 12:33:19;;;;;;;4.13;1.92;;;7.80;90.90;;;;;;4931605;29;20051;-79
2022/12/01 12:36:09;;;;;;;5.90;2.42;;;7.70;90.90;;;;;;4971293;28;20108;-79
2022/12/01 12:39:00;;;;;;;4.75;2.03;;;7.80;90.90;;;;;;5049815;28;20059;-78
2022/12/01 12:41:35;;;;;;;6.18;2.47;;;8.00;90.80;;;;;;5035417;28;20143;-78
2022/12/01 12:44:40;;;;;;;4.70;2.22;;;8.10;90.70;;;;;;5035155;28;20068;-79
2022/12/01 12:47:24;;;;;;;4.95;2.20;;;8.20;90.50;;;;;;5105433;28;20122;-78
2022/12/01 12:50:14;;;;;;;4.75;2.20;;;8.20;90.40;;;;;;5095760;28;20066;-78
2022/12/01 12:52:44;;;;;;;4.40;2.10;;;8.30;90.40;;;;;;5099763;28;20511;-79
2022/12/01 12:55:18;;;;;;;5.68;2.53;;;8.10;90.40;;;;;;5095838;28;20052;-78
2022/12/01 12:57:51;;;;;;;3.72;2.10;;;8.20;90.40;;;;;;5080272;28;20043;-78
2022/12/01 13:00:22;;;;;;;5.55;2.47;;;8.10;90.40;;;;;;5114594;28;20036;-79
2022/12/01 13:03:04;;;;;;;3.22;2.03;;;8.10;90.40;;;;;;5114802;28;20040;-78
2022/12/01 13:05:51;;;;;;;4.40;2.10;;;8.20;90.40;;;;;;5094921;28;20176;-79
2022/12/01 13:08:25;;;;;;;5.65;2.60;;;8.00;90.40;;;;;;5117099;28;20032;-78
2022/12/01 13:11:05;;;;;;;5.50;2.40;;;8.00;90.50;;;;;;5096898;28;20070;-79
2022/12/01 13:13:51;;;;;;;4.35;2.08;;;7.90;90.50;;;;;;5118706;28;20091;-79
2022/12/01 13:16:26;;;;;;;4.10;1.90;;;7.80;90.50;;;;;;5102659;28;20036;-77
2022/12/01 13:19:01;;;;;;;4.20;2.10;;;7.80;90.60;;;;;;5098917;28;20052;-78
2022/12/01 13:21:33;;;;;;;4.32;2.00;;;7.90;90.60;;;;;;5099326;28;20048;-78
2022/12/01 13:23:59;;;;;;;3.67;1.73;;;8.00;90.60;;;;;;5080290;28;20039;-78
2022/12/01 13:26:25;;;;;;;4.05;2.25;;;8.00;90.40;;;;;;5098166;28;20319;-79
2022/12/01 13:28:55;;;;;;;6.47;2.90;;;8.00;90.30;;;;;;5097426;28;20040;-78
2022/12/01 13:31:21;;;;;;;5.88;2.60;;;8.00;90.30;;;;;;5115604;28;20039;-78
2022/12/01 13:33:58;;;;;;;5.00;2.35;;;8.00;90.30;;;;;;5080431;28;20040;-78
2022/12/01 13:36:24;;;;;;;5.05;2.40;;;7.90;90.30;;;;;;5063952;28;20058;-78
2022/12/01 13:39:12;;;;;;;5.28;2.30;;;7.90;90.30;;;;;;5097440;28;20036;-78
2022/12/01 13:42:04;;;;;;;4.32;2.10;;;7.80;90.40;;;;;;5116168;28;20050;-77